sensor_id;sensor_type;location;lat;lon;timestamp;temperature;humidity
19536;HTU21D;9913;51.168;4.124;2023-03-24T00:02:03;12.75;56.35
19536;HTU21D;9913;51.168;4.124;2023-03-24T00:04:33;12.74;56.49
19536;HTU21D;9913;51.168;4.124;2023-03-24T00:07:02;12.61;56.24
19536;HTU21D;9913;51.168;4.124;2023-03-24T00:09:30;12.66;56.32
19536;HTU21D;9913;51.168;4.124;2023-03-24T00:11:59;12.74;56.35
19536;HTU21D;9913;51.168;4.124;2023-03-24T00:14:28;12.73;56.26
19536;HTU21D;9913;51.168;4.124;2023-03-24T00:16:58;12.72;56.54
19536;HTU21D;9913;51.168;4.124;2023-03-24T00:19:27;12.74;56.07
19536;HTU21D;9913;51.168;4.124;2023-03-24T00:21:55;12.71;56.19
19536;HTU21D;9913;51.168;4.124;2023-03-24T00:24:26;12.75;56.16
19536;HTU21D;9913;51.168;4.124;2023-03-24T00:26:55;12.75;56.39
19536;HTU21D;9913;51.168;4.124;2023-03-24T00:29:24;12.73;56.39
19536;HTU21D;9913;51.168;4.124;2023-03-24T00:31:53;12.79;56.39
19536;HTU21D;9913;51.168;4.124;2023-03-24T00:34:22;12.81;56.53
19536;HTU21D;9913;51.168;4.124;2023-03-24T00:36:51;12.82;56.59
19536;HTU21D;9913;51.168;4.124;2023-03-24T00:39:20;12.84;56.49
19536;HTU21D;9913;51.168;4.124;2023-03-24T00:41:48;12.79;56.44
19536;HTU21D;9913;51.168;4.124;2023-03-24T00:44:17;12.79;56.43
19536;HTU21D;9913;51.168;4.124;2023-03-24T00:46:46;12.82;56.60
19536;HTU21D;9913;51.168;4.124;2023-03-24T00:49:25;12.79;56.55
19536;HTU21D;9913;51.168;4.124;2023-03-24T00:52:09;12.81;56.30
19536;HTU21D;9913;51.168;4.124;2023-03-24T00:54:38;12.79;56.58
19536;HTU21D;9913;51.168;4.124;2023-03-24T00:57:07;12.86;56.69
19536;HTU21D;9913;51.168;4.124;2023-03-24T00:59:39;12.87;56.91
19536;HTU21D;9913;51.168;4.124;2023-03-24T01:02:14;12.91;56.45
19536;HTU21D;9913;51.168;4.124;2023-03-24T01:04:46;12.93;56.61
19536;HTU21D;9913;51.168;4.124;2023-03-24T01:07:15;12.99;56.77
19536;HTU21D;9913;51.168;4.124;2023-03-24T01:09:44;13.01;56.70
19536;HTU21D;9913;51.168;4.124;2023-03-24T01:12:18;12.97;56.87
19536;HTU21D;9913;51.168;4.124;2023-03-24T01:14:48;12.99;56.32
19536;HTU21D;9913;51.168;4.124;2023-03-24T01:17:16;12.87;56.45
19536;HTU21D;9913;51.168;4.124;2023-03-24T01:19:47;12.74;56.16
19536;HTU21D;9913;51.168;4.124;2023-03-24T01:22:15;12.66;56.39
19536;HTU21D;9913;51.168;4.124;2023-03-24T01:24:44;12.66;56.42
19536;HTU21D;9913;51.168;4.124;2023-03-24T01:27:12;12.59;56.56
19536;HTU21D;9913;51.168;4.124;2023-03-24T01:29:41;12.56;56.64
19536;HTU21D;9913;51.168;4.124;2023-03-24T01:32:10;12.51;56.57
19536;HTU21D;9913;51.168;4.124;2023-03-24T01:34:39;12.57;56.38
19536;HTU21D;9913;51.168;4.124;2023-03-24T01:37:09;12.60;56.16
19536;HTU21D;9913;51.168;4.124;2023-03-24T01:39:38;12.51;56.28
19536;HTU21D;9913;51.168;4.124;2023-03-24T01:42:10;12.43;56.72
19536;HTU21D;9913;51.168;4.124;2023-03-24T01:44:45;12.33;56.87
19536;HTU21D;9913;51.168;4.124;2023-03-24T01:47:14;12.22;56.68
19536;HTU21D;9913;51.168;4.124;2023-03-24T01:49:46;12.12;56.79
19536;HTU21D;9913;51.168;4.124;2023-03-24T01:52:21;11.88;56.57
19536;HTU21D;9913;51.168;4.124;2023-03-24T01:54:55;11.72;57.42
19536;HTU21D;9913;51.168;4.124;2023-03-24T01:57:28;11.63;56.63
19536;HTU21D;9913;51.168;4.124;2023-03-24T01:59:59;11.56;57.28
19536;HTU21D;9913;51.168;4.124;2023-03-24T02:03:10;11.41;57.06
19536;HTU21D;9913;51.168;4.124;2023-03-24T02:05:50;11.39;57.98
19536;HTU21D;9913;51.168;4.124;2023-03-24T02:08:25;11.30;57.87
19536;HTU21D;9913;51.168;4.124;2023-03-24T02:10:55;11.26;58.25
19536;HTU21D;9913;51.168;4.124;2023-03-24T02:13:32;11.17;58.17
19536;HTU21D;9913;51.168;4.124;2023-03-24T02:16:11;11.11;58.67
19536;HTU21D;9913;51.168;4.124;2023-03-24T02:18:46;11.08;59.25
19536;HTU21D;9913;51.168;4.124;2023-03-24T02:21:48;11.01;58.95
19536;HTU21D;9913;51.168;4.124;2023-03-24T02:30:58;10.97;59.49
19536;HTU21D;9913;51.168;4.124;2023-03-24T02:34:03;10.96;59.13
19536;HTU21D;9913;51.168;4.124;2023-03-24T02:42:41;10.93;60.22
19536;HTU21D;9913;51.168;4.124;2023-03-24T02:45:21;10.89;60.09
19536;HTU21D;9913;51.168;4.124;2023-03-24T02:48:01;10.85;59.91
19536;HTU21D;9913;51.168;4.124;2023-03-24T02:50:40;10.77;59.73
19536;HTU21D;9913;51.168;4.124;2023-03-24T02:53:14;10.70;59.71
19536;HTU21D;9913;51.168;4.124;2023-03-24T02:56:10;10.63;59.90
19536;HTU21D;9913;51.168;4.124;2023-03-24T02:58:43;10.64;59.56
19536;HTU21D;9913;51.168;4.124;2023-03-24T03:01:19;10.63;59.84
19536;HTU21D;9913;51.168;4.124;2023-03-24T03:04:09;10.65;59.88
19536;HTU21D;9913;51.168;4.124;2023-03-24T03:06:40;10.62;59.97
19536;HTU21D;9913;51.168;4.124;2023-03-24T03:09:12;10.60;60.42
19536;HTU21D;9913;51.168;4.124;2023-03-24T03:11:47;10.62;59.74
19536;HTU21D;9913;51.168;4.124;2023-03-24T03:14:20;10.57;59.86
19536;HTU21D;9913;51.168;4.124;2023-03-24T03:16:51;10.58;59.43
19536;HTU21D;9913;51.168;4.124;2023-03-24T03:19:30;10.65;59.61
19536;HTU21D;9913;51.168;4.124;2023-03-24T03:22:01;10.66;59.64
19536;HTU21D;9913;51.168;4.124;2023-03-24T03:24:37;10.67;59.71
19536;HTU21D;9913;51.168;4.124;2023-03-24T03:27:09;10.66;59.45
19536;HTU21D;9913;51.168;4.124;2023-03-24T03:29:44;10.66;59.72
19536;HTU21D;9913;51.168;4.124;2023-03-24T03:32:19;10.67;59.61
19536;HTU21D;9913;51.168;4.124;2023-03-24T03:34:54;10.69;59.77
19536;HTU21D;9913;51.168;4.124;2023-03-24T03:37:29;10.67;59.79
19536;HTU21D;9913;51.168;4.124;2023-03-24T03:40:03;10.57;59.58
19536;HTU21D;9913;51.168;4.124;2023-03-24T03:42:35;10.49;59.44
19536;HTU21D;9913;51.168;4.124;2023-03-24T03:45:06;10.48;59.54
19536;HTU21D;9913;51.168;4.124;2023-03-24T03:47:37;10.42;59.48
19536;HTU21D;9913;51.168;4.124;2023-03-24T03:50:07;10.38;59.31
19536;HTU21D;9913;51.168;4.124;2023-03-24T03:52:37;10.24;59.40
19536;HTU21D;9913;51.168;4.124;2023-03-24T03:55:08;10.13;59.23
19536;HTU21D;9913;51.168;4.124;2023-03-24T03:57:39;10.07;59.25
19536;HTU21D;9913;51.168;4.124;2023-03-24T04:00:20;10.09;59.28
19536;HTU21D;9913;51.168;4.124;2023-03-24T04:03:31;10.03;59.10
19536;HTU21D;9913;51.168;4.124;2023-03-24T04:06:08;10.00;59.19
19536;HTU21D;9913;51.168;4.124;2023-03-24T04:08:46;10.01;59.07
19536;HTU21D;9913;51.168;4.124;2023-03-24T04:11:45;10.06;59.22
19536;HTU21D;9913;51.168;4.124;2023-03-24T04:14:49;10.06;59.30
19536;HTU21D;9913;51.168;4.124;2023-03-24T04:18:22;10.03;59.25
19536;HTU21D;9913;51.168;4.124;2023-03-24T04:21:25;9.98;59.14
19536;HTU21D;9913;51.168;4.124;2023-03-24T04:24:13;9.93;59.12
19536;HTU21D;9913;51.168;4.124;2023-03-24T04:26:50;9.82;59.17
19536;HTU21D;9913;51.168;4.124;2023-03-24T04:29:29;9.81;59.15
19536;HTU21D;9913;51.168;4.124;2023-03-24T04:32:05;9.84;59.29
19536;HTU21D;9913;51.168;4.124;2023-03-24T04:34:39;9.88;59.12
19536;HTU21D;9913;51.168;4.124;2023-03-24T04:37:30;9.91;59.08
19536;HTU21D;9913;51.168;4.124;2023-03-24T04:40:12;9.94;59.23
19536;HTU21D;9913;51.168;4.124;2023-03-24T04:42:43;9.98;59.12
19536;HTU21D;9913;51.168;4.124;2023-03-24T04:45:13;10.06;59.32
19536;HTU21D;9913;51.168;4.124;2023-03-24T04:48:05;10.11;59.32
19536;HTU21D;9913;51.168;4.124;2023-03-24T04:50:52;10.13;59.41
19536;HTU21D;9913;51.168;4.124;2023-03-24T04:53:22;10.11;59.35
19536;HTU21D;9913;51.168;4.124;2023-03-24T04:56:06;10.01;59.37
19536;HTU21D;9913;51.168;4.124;2023-03-24T04:59:01;9.92;59.32
19536;HTU21D;9913;51.168;4.124;2023-03-24T05:01:29;9.81;59.51
19536;HTU21D;9913;51.168;4.124;2023-03-24T05:04:21;9.72;59.44
19536;HTU21D;9913;51.168;4.124;2023-03-24T05:06:50;9.71;59.51
19536;HTU21D;9913;51.168;4.124;2023-03-24T05:09:23;9.67;59.41
19536;HTU21D;9913;51.168;4.124;2023-03-24T05:11:52;9.67;59.39
19536;HTU21D;9913;51.168;4.124;2023-03-24T05:14:22;9.69;59.39
19536;HTU21D;9913;51.168;4.124;2023-03-24T05:16:51;9.63;59.50
19536;HTU21D;9913;51.168;4.124;2023-03-24T05:19:23;9.63;59.41
19536;HTU21D;9913;51.168;4.124;2023-03-24T05:21:51;9.62;59.47
19536;HTU21D;9913;51.168;4.124;2023-03-24T05:24:22;9.59;59.38
19536;HTU21D;9913;51.168;4.124;2023-03-24T05:26:50;9.53;59.49
19536;HTU21D;9913;51.168;4.124;2023-03-24T05:29:19;9.54;59.48
19536;HTU21D;9913;51.168;4.124;2023-03-24T05:31:48;9.60;59.44
19536;HTU21D;9913;51.168;4.124;2023-03-24T05:34:20;9.55;59.40
19536;HTU21D;9913;51.168;4.124;2023-03-24T05:37:12;9.57;59.40
19536;HTU21D;9913;51.168;4.124;2023-03-24T05:39:47;9.59;59.47
19536;HTU21D;9913;51.168;4.124;2023-03-24T05:42:47;9.59;59.48
19536;HTU21D;9913;51.168;4.124;2023-03-24T05:45:16;9.53;59.38
19536;HTU21D;9913;51.168;4.124;2023-03-24T05:47:45;9.54;59.53
19536;HTU21D;9913;51.168;4.124;2023-03-24T05:50:16;9.51;59.42
19536;HTU21D;9913;51.168;4.124;2023-03-24T05:52:46;9.45;59.37
19536;HTU21D;9913;51.168;4.124;2023-03-24T05:55:44;9.42;59.50
19536;HTU21D;9913;51.168;4.124;2023-03-24T05:58:32;9.39;59.41
19536;HTU21D;9913;51.168;4.124;2023-03-24T06:01:05;9.46;59.48
19536;HTU21D;9913;51.168;4.124;2023-03-24T06:03:36;9.50;59.57
19536;HTU21D;9913;51.168;4.124;2023-03-24T06:06:11;9.48;59.54
19536;HTU21D;9913;51.168;4.124;2023-03-24T06:08:44;9.48;59.41
19536;HTU21D;9913;51.168;4.124;2023-03-24T06:11:14;9.59;59.57
19536;HTU21D;9913;51.168;4.124;2023-03-24T06:14:00;9.77;59.56
19536;HTU21D;9913;51.168;4.124;2023-03-24T06:16:36;9.93;59.64
19536;HTU21D;9913;51.168;4.124;2023-03-24T06:19:07;10.00;59.46
19536;HTU21D;9913;51.168;4.124;2023-03-24T06:22:00;10.12;59.69
19536;HTU21D;9913;51.168;4.124;2023-03-24T06:24:43;10.10;59.33
19536;HTU21D;9913;51.168;4.124;2023-03-24T06:27:13;10.15;59.19
19536;HTU21D;9913;51.168;4.124;2023-03-24T06:29:41;10.08;59.37
19536;HTU21D;9913;51.168;4.124;2023-03-24T06:32:12;10.00;59.25
19536;HTU21D;9913;51.168;4.124;2023-03-24T06:34:41;9.97;59.41
19536;HTU21D;9913;51.168;4.124;2023-03-24T06:37:30;10.05;59.38
19536;HTU21D;9913;51.168;4.124;2023-03-24T06:40:02;10.10;59.42
19536;HTU21D;9913;51.168;4.124;2023-03-24T06:42:36;10.18;59.28
19536;HTU21D;9913;51.168;4.124;2023-03-24T06:45:06;10.20;59.61
19536;HTU21D;9913;51.168;4.124;2023-03-24T06:47:35;10.14;59.59
19536;HTU21D;9913;51.168;4.124;2023-03-24T06:50:06;10.26;59.96
19536;HTU21D;9913;51.168;4.124;2023-03-24T06:52:34;10.43;60.13
19536;HTU21D;9913;51.168;4.124;2023-03-24T06:55:05;10.54;59.96
19536;HTU21D;9913;51.168;4.124;2023-03-24T06:57:34;10.54;60.03
19536;HTU21D;9913;51.168;4.124;2023-03-24T07:00:20;10.45;59.71
19536;HTU21D;9913;51.168;4.124;2023-03-24T07:02:59;10.43;59.92
19536;HTU21D;9913;51.168;4.124;2023-03-24T07:05:28;10.36;59.93
19536;HTU21D;9913;51.168;4.124;2023-03-24T07:07:57;10.35;59.86
19536;HTU21D;9913;51.168;4.124;2023-03-24T07:10:36;10.56;60.12
19536;HTU21D;9913;51.168;4.124;2023-03-24T07:13:06;10.75;60.18
19536;HTU21D;9913;51.168;4.124;2023-03-24T07:15:36;10.94;60.69
19536;HTU21D;9913;51.168;4.124;2023-03-24T07:18:05;10.94;60.47
19536;HTU21D;9913;51.168;4.124;2023-03-24T07:20:40;11.00;61.05
19536;HTU21D;9913;51.168;4.124;2023-03-24T07:23:12;10.92;60.36
19536;HTU21D;9913;51.168;4.124;2023-03-24T07:25:45;10.93;60.56
19536;HTU21D;9913;51.168;4.124;2023-03-24T07:28:23;10.90;61.73
19536;HTU21D;9913;51.168;4.124;2023-03-24T07:30:52;11.07;61.00
19536;HTU21D;9913;51.168;4.124;2023-03-24T07:33:22;11.04;60.48
19536;HTU21D;9913;51.168;4.124;2023-03-24T07:35:53;11.13;60.86
19536;HTU21D;9913;51.168;4.124;2023-03-24T07:38:24;11.19;60.96
19536;HTU21D;9913;51.168;4.124;2023-03-24T07:41:00;11.30;60.93
19536;HTU21D;9913;51.168;4.124;2023-03-24T07:43:31;11.15;61.57
19536;HTU21D;9913;51.168;4.124;2023-03-24T07:45:59;11.09;60.83
19536;HTU21D;9913;51.168;4.124;2023-03-24T07:48:28;11.12;60.50
19536;HTU21D;9913;51.168;4.124;2023-03-24T07:50:56;11.03;60.08
19536;HTU21D;9913;51.168;4.124;2023-03-24T07:53:47;10.97;60.80
19536;HTU21D;9913;51.168;4.124;2023-03-24T07:56:26;11.04;60.67
19536;HTU21D;9913;51.168;4.124;2023-03-24T07:58:57;11.03;60.76
19536;HTU21D;9913;51.168;4.124;2023-03-24T08:02:01;11.01;60.99
19536;HTU21D;9913;51.168;4.124;2023-03-24T08:04:49;11.29;61.66
19536;HTU21D;9913;51.168;4.124;2023-03-24T08:07:50;11.67;61.84
19536;HTU21D;9913;51.168;4.124;2023-03-24T08:10:22;11.96;62.43
19536;HTU21D;9913;51.168;4.124;2023-03-24T08:12:52;12.16;61.91
19536;HTU21D;9913;51.168;4.124;2023-03-24T08:15:20;12.00;63.44
19536;HTU21D;9913;51.168;4.124;2023-03-24T08:17:49;12.10;63.45
19536;HTU21D;9913;51.168;4.124;2023-03-24T08:20:18;12.29;62.79
19536;HTU21D;9913;51.168;4.124;2023-03-24T08:22:48;12.64;63.55
19536;HTU21D;9913;51.168;4.124;2023-03-24T08:25:22;12.38;63.50
19536;HTU21D;9913;51.168;4.124;2023-03-24T08:27:53;12.43;63.68
19536;HTU21D;9913;51.168;4.124;2023-03-24T08:30:23;12.65;63.15
19536;HTU21D;9913;51.168;4.124;2023-03-24T08:32:53;12.56;63.18
19536;HTU21D;9913;51.168;4.124;2023-03-24T08:35:23;12.43;64.40
19536;HTU21D;9913;51.168;4.124;2023-03-24T08:37:52;12.38;63.78
19536;HTU21D;9913;51.168;4.124;2023-03-24T08:40:22;12.20;63.35
19536;HTU21D;9913;51.168;4.124;2023-03-24T08:42:54;12.28;63.20
19536;HTU21D;9913;51.168;4.124;2023-03-24T08:45:25;12.16;64.00
19536;HTU21D;9913;51.168;4.124;2023-03-24T08:47:55;12.20;62.69
19536;HTU21D;9913;51.168;4.124;2023-03-24T08:50:26;12.26;63.36
19536;HTU21D;9913;51.168;4.124;2023-03-24T08:52:55;12.47;64.10
19536;HTU21D;9913;51.168;4.124;2023-03-24T08:55:24;12.59;63.93
19536;HTU21D;9913;51.168;4.124;2023-03-24T08:57:54;12.88;65.11
19536;HTU21D;9913;51.168;4.124;2023-03-24T09:00:23;12.95;64.63
19536;HTU21D;9913;51.168;4.124;2023-03-24T09:02:53;13.09;65.11
19536;HTU21D;9913;51.168;4.124;2023-03-24T09:05:23;12.76;63.69
19536;HTU21D;9913;51.168;4.124;2023-03-24T09:08:10;12.45;64.61
19536;HTU21D;9913;51.168;4.124;2023-03-24T09:10:40;12.33;64.11
19536;HTU21D;9913;51.168;4.124;2023-03-24T09:13:10;12.33;63.31
19536;HTU21D;9913;51.168;4.124;2023-03-24T09:15:39;12.16;63.15
19536;HTU21D;9913;51.168;4.124;2023-03-24T09:18:08;12.06;62.17
19536;HTU21D;9913;51.168;4.124;2023-03-24T09:20:36;12.13;62.41
19536;HTU21D;9913;51.168;4.124;2023-03-24T09:23:04;12.40;62.50
19536;HTU21D;9913;51.168;4.124;2023-03-24T09:25:32;12.59;62.90
19536;HTU21D;9913;51.168;4.124;2023-03-24T09:28:01;12.77;63.47
19536;HTU21D;9913;51.168;4.124;2023-03-24T09:30:31;12.82;64.59
19536;HTU21D;9913;51.168;4.124;2023-03-24T09:33:01;12.53;63.00
19536;HTU21D;9913;51.168;4.124;2023-03-24T09:35:29;12.38;64.50
19536;HTU21D;9913;51.168;4.124;2023-03-24T09:37:58;12.35;63.48
19536;HTU21D;9913;51.168;4.124;2023-03-24T09:40:28;12.71;63.14
19536;HTU21D;9913;51.168;4.124;2023-03-24T09:43:00;13.46;63.86
19536;HTU21D;9913;51.168;4.124;2023-03-24T09:45:34;13.69;65.01
19536;HTU21D;9913;51.168;4.124;2023-03-24T09:48:05;13.99;65.73
19536;HTU21D;9913;51.168;4.124;2023-03-24T09:50:39;13.48;65.16
19536;HTU21D;9913;51.168;4.124;2023-03-24T09:53:17;13.05;64.34
19536;HTU21D;9913;51.168;4.124;2023-03-24T09:55:48;12.93;64.95
19536;HTU21D;9913;51.168;4.124;2023-03-24T09:58:17;12.84;64.03
19536;HTU21D;9913;51.168;4.124;2023-03-24T10:00:47;12.43;63.62
19536;HTU21D;9913;51.168;4.124;2023-03-24T10:03:19;12.34;63.58
19536;HTU21D;9913;51.168;4.124;2023-03-24T10:05:52;12.43;62.69
19536;HTU21D;9913;51.168;4.124;2023-03-24T10:08:26;12.23;62.07
19536;HTU21D;9913;51.168;4.124;2023-03-24T10:11:01;11.94;62.07
19536;HTU21D;9913;51.168;4.124;2023-03-24T10:13:40;11.63;61.39
19536;HTU21D;9913;51.168;4.124;2023-03-24T10:16:18;11.46;60.84
19536;HTU21D;9913;51.168;4.124;2023-03-24T10:18:54;11.36;60.70
19536;HTU21D;9913;51.168;4.124;2023-03-24T10:21:26;11.33;58.45
19536;HTU21D;9913;51.168;4.124;2023-03-24T10:24:00;11.10;58.78
19536;HTU21D;9913;51.168;4.124;2023-03-24T10:26:38;10.94;58.29
19536;HTU21D;9913;51.168;4.124;2023-03-24T10:29:19;10.65;57.64
19536;HTU21D;9913;51.168;4.124;2023-03-24T10:31:53;10.22;58.10
19536;HTU21D;9913;51.168;4.124;2023-03-24T10:34:27;10.35;58.44
19536;HTU21D;9913;51.168;4.124;2023-03-24T10:36:57;10.37;57.80
19536;HTU21D;9913;51.168;4.124;2023-03-24T10:39:28;10.52;57.69
19536;HTU21D;9913;51.168;4.124;2023-03-24T10:42:16;10.49;57.17
19536;HTU21D;9913;51.168;4.124;2023-03-24T10:44:48;10.57;57.48
19536;HTU21D;9913;51.168;4.124;2023-03-24T10:47:23;10.71;56.81
19536;HTU21D;9913;51.168;4.124;2023-03-24T10:49:55;10.48;56.79
19536;HTU21D;9913;51.168;4.124;2023-03-24T10:52:24;10.28;57.00
19536;HTU21D;9913;51.168;4.124;2023-03-24T10:54:53;10.23;57.26
19536;HTU21D;9913;51.168;4.124;2023-03-24T10:57:24;9.96;57.21
19536;HTU21D;9913;51.168;4.124;2023-03-24T10:59:55;9.89;57.71
19536;HTU21D;9913;51.168;4.124;2023-03-24T11:02:29;9.71;57.58
19536;HTU21D;9913;51.168;4.124;2023-03-24T11:04:59;9.74;57.73
19536;HTU21D;9913;51.168;4.124;2023-03-24T11:07:32;9.71;58.05
19536;HTU21D;9913;51.168;4.124;2023-03-24T11:10:05;9.85;58.44
19536;HTU21D;9913;51.168;4.124;2023-03-24T11:12:36;9.85;58.39
19536;HTU21D;9913;51.168;4.124;2023-03-24T11:15:23;10.21;57.57
19536;HTU21D;9913;51.168;4.124;2023-03-24T11:17:57;10.82;56.58
19536;HTU21D;9913;51.168;4.124;2023-03-24T11:20:30;11.09;56.74
19536;HTU21D;9913;51.168;4.124;2023-03-24T11:23:02;11.44;55.41
19536;HTU21D;9913;51.168;4.124;2023-03-24T11:25:33;11.94;55.93
19536;HTU21D;9913;51.168;4.124;2023-03-24T11:28:06;12.00;55.53
19536;HTU21D;9913;51.168;4.124;2023-03-24T11:30:44;11.94;55.44
19536;HTU21D;9913;51.168;4.124;2023-03-24T11:33:22;12.52;55.71
19536;HTU21D;9913;51.168;4.124;2023-03-24T11:36:07;12.87;55.29
19536;HTU21D;9913;51.168;4.124;2023-03-24T11:38:36;13.12;55.13
19536;HTU21D;9913;51.168;4.124;2023-03-24T11:41:04;13.51;54.32
19536;HTU21D;9913;51.168;4.124;2023-03-24T11:43:33;13.00;56.09
19536;HTU21D;9913;51.168;4.124;2023-03-24T11:46:06;13.19;56.95
19536;HTU21D;9913;51.168;4.124;2023-03-24T11:48:45;12.73;57.37
19536;HTU21D;9913;51.168;4.124;2023-03-24T11:51:22;12.73;58.06
19536;HTU21D;9913;51.168;4.124;2023-03-24T11:53:57;12.58;59.85
19536;HTU21D;9913;51.168;4.124;2023-03-24T11:56:29;12.46;60.09
19536;HTU21D;9913;51.168;4.124;2023-03-24T11:59:04;12.22;60.12
19536;HTU21D;9913;51.168;4.124;2023-03-24T12:01:37;12.20;60.02
19536;HTU21D;9913;51.168;4.124;2023-03-24T12:04:22;11.88;59.13
19536;HTU21D;9913;51.168;4.124;2023-03-24T12:07:02;11.40;57.51
19536;HTU21D;9913;51.168;4.124;2023-03-24T12:09:38;11.76;57.33
19536;HTU21D;9913;51.168;4.124;2023-03-24T12:12:21;11.59;56.70
19536;HTU21D;9913;51.168;4.124;2023-03-24T12:15:03;11.47;57.42
19536;HTU21D;9913;51.168;4.124;2023-03-24T12:17:50;11.46;57.26
19536;HTU21D;9913;51.168;4.124;2023-03-24T12:20:27;12.49;56.10
19536;HTU21D;9913;51.168;4.124;2023-03-24T12:23:02;12.37;56.60
19536;HTU21D;9913;51.168;4.124;2023-03-24T12:25:40;12.95;59.35
19536;HTU21D;9913;51.168;4.124;2023-03-24T12:28:21;12.70;57.93
19536;HTU21D;9913;51.168;4.124;2023-03-24T12:31:01;12.21;57.10
19536;HTU21D;9913;51.168;4.124;2023-03-24T12:33:44;12.27;56.77
19536;HTU21D;9913;51.168;4.124;2023-03-24T12:36:38;12.02;57.06
19536;HTU21D;9913;51.168;4.124;2023-03-24T12:39:11;12.03;57.29
19536;HTU21D;9913;51.168;4.124;2023-03-24T12:42:07;11.71;56.82
19536;HTU21D;9913;51.168;4.124;2023-03-24T12:44:59;11.45;56.70
19536;HTU21D;9913;51.168;4.124;2023-03-24T12:47:58;11.26;56.79
19536;HTU21D;9913;51.168;4.124;2023-03-24T12:50:38;11.25;57.05
19536;HTU21D;9913;51.168;4.124;2023-03-24T12:53:23;11.42;56.97
19536;HTU21D;9913;51.168;4.124;2023-03-24T12:55:56;11.30;56.75
19536;HTU21D;9913;51.168;4.124;2023-03-24T12:58:38;11.20;56.78
19536;HTU21D;9913;51.168;4.124;2023-03-24T13:01:15;11.27;57.22
19536;HTU21D;9913;51.168;4.124;2023-03-24T13:03:48;11.42;56.69
19536;HTU21D;9913;51.168;4.124;2023-03-24T13:06:22;11.60;56.74
19536;HTU21D;9913;51.168;4.124;2023-03-24T13:09:03;12.30;55.29
19536;HTU21D;9913;51.168;4.124;2023-03-24T13:11:40;12.58;55.23
19536;HTU21D;9913;51.168;4.124;2023-03-24T13:14:14;12.91;55.28
19536;HTU21D;9913;51.168;4.124;2023-03-24T13:16:45;13.53;56.34
19536;HTU21D;9913;51.168;4.124;2023-03-24T13:19:18;13.30;55.38
19536;HTU21D;9913;51.168;4.124;2023-03-24T13:21:49;13.48;59.55
19536;HTU21D;9913;51.168;4.124;2023-03-24T13:24:21;13.85;60.41
19536;HTU21D;9913;51.168;4.124;2023-03-24T13:26:55;14.01;60.39
19536;HTU21D;9913;51.168;4.124;2023-03-24T13:32:26;14.25;61.05
19536;HTU21D;9913;51.168;4.124;2023-03-24T13:35:00;14.27;62.24
19536;HTU21D;9913;51.168;4.124;2023-03-24T13:37:34;14.34;63.70
19536;HTU21D;9913;51.168;4.124;2023-03-24T13:40:09;14.26;62.46
19536;HTU21D;9913;51.168;4.124;2023-03-24T13:42:42;13.73;62.90
19536;HTU21D;9913;51.168;4.124;2023-03-24T13:45:23;13.73;59.94
19536;HTU21D;9913;51.168;4.124;2023-03-24T13:48:05;14.17;56.64
19536;HTU21D;9913;51.168;4.124;2023-03-24T13:50:52;14.00;58.25
19536;HTU21D;9913;51.168;4.124;2023-03-24T13:53:29;13.33;62.66
19536;HTU21D;9913;51.168;4.124;2023-03-24T13:56:01;12.87;61.15
19536;HTU21D;9913;51.168;4.124;2023-03-24T13:58:46;12.74;61.83
19536;HTU21D;9913;51.168;4.124;2023-03-24T14:01:18;12.57;61.04
19536;HTU21D;9913;51.168;4.124;2023-03-24T14:04:38;12.43;58.54
19536;HTU21D;9913;51.168;4.124;2023-03-24T14:07:29;12.01;56.19
19536;HTU21D;9913;51.168;4.124;2023-03-24T14:10:00;11.81;55.98
19536;HTU21D;9913;51.168;4.124;2023-03-24T14:12:31;11.36;55.74
19536;HTU21D;9913;51.168;4.124;2023-03-24T14:15:15;11.29;55.69
19536;HTU21D;9913;51.168;4.124;2023-03-24T14:17:46;11.38;56.00
19536;HTU21D;9913;51.168;4.124;2023-03-24T14:20:25;11.48;55.65
19536;HTU21D;9913;51.168;4.124;2023-03-24T14:22:54;11.41;56.07
19536;HTU21D;9913;51.168;4.124;2023-03-24T14:25:27;11.66;55.61
19536;HTU21D;9913;51.168;4.124;2023-03-24T14:28:20;11.93;54.87
19536;HTU21D;9913;51.168;4.124;2023-03-24T14:31:17;12.92;54.52
19536;HTU21D;9913;51.168;4.124;2023-03-24T14:33:58;12.72;55.72
19536;HTU21D;9913;51.168;4.124;2023-03-24T14:36:30;12.61;55.60
19536;HTU21D;9913;51.168;4.124;2023-03-24T14:39:21;13.08;55.49
19536;HTU21D;9913;51.168;4.124;2023-03-24T14:41:52;13.74;55.20
19536;HTU21D;9913;51.168;4.124;2023-03-24T14:44:52;14.32;62.46
19536;HTU21D;9913;51.168;4.124;2023-03-24T14:47:22;14.82;61.72
19536;HTU21D;9913;51.168;4.124;2023-03-24T14:49:56;14.51;61.77
19536;HTU21D;9913;51.168;4.124;2023-03-24T14:52:30;14.54;63.85
19536;HTU21D;9913;51.168;4.124;2023-03-24T14:55:02;15.54;62.91
19536;HTU21D;9913;51.168;4.124;2023-03-24T14:57:36;15.61;62.62
19536;HTU21D;9913;51.168;4.124;2023-03-24T15:00:12;15.77;67.60
19536;HTU21D;9913;51.168;4.124;2023-03-24T15:02:44;16.01;66.79
19536;HTU21D;9913;51.168;4.124;2023-03-24T15:05:27;15.31;63.26
19536;HTU21D;9913;51.168;4.124;2023-03-24T15:08:02;15.68;65.99
19536;HTU21D;9913;51.168;4.124;2023-03-24T15:10:35;15.52;65.15
19536;HTU21D;9913;51.168;4.124;2023-03-24T15:13:05;15.12;63.71
19536;HTU21D;9913;51.168;4.124;2023-03-24T15:15:35;14.81;65.37
19536;HTU21D;9913;51.168;4.124;2023-03-24T15:18:03;14.21;63.95
19536;HTU21D;9913;51.168;4.124;2023-03-24T15:20:32;13.89;63.17
19536;HTU21D;9913;51.168;4.124;2023-03-24T15:23:16;15.55;66.09
19536;HTU21D;9913;51.168;4.124;2023-03-24T15:25:45;16.87;68.00
19536;HTU21D;9913;51.168;4.124;2023-03-24T15:28:18;17.19;67.22
19536;HTU21D;9913;51.168;4.124;2023-03-24T15:30:49;16.87;64.80
19536;HTU21D;9913;51.168;4.124;2023-03-24T15:33:17;17.67;66.22
19536;HTU21D;9913;51.168;4.124;2023-03-24T15:35:53;17.74;64.88
19536;HTU21D;9913;51.168;4.124;2023-03-24T15:38:27;18.11;65.37
19536;HTU21D;9913;51.168;4.124;2023-03-24T15:40:58;17.75;67.01
19536;HTU21D;9913;51.168;4.124;2023-03-24T15:43:28;18.00;104.70
19536;HTU21D;9913;51.168;4.124;2023-03-24T15:45:58;18.30;112.29
19536;HTU21D;9913;51.168;4.124;2023-03-24T15:48:38;16.04;105.91
19536;HTU21D;9913;51.168;4.124;2023-03-24T15:51:08;15.30;104.99
19536;HTU21D;9913;51.168;4.124;2023-03-24T15:53:40;14.86;103.83
19536;HTU21D;9913;51.168;4.124;2023-03-24T15:56:19;14.26;106.70
19536;HTU21D;9913;51.168;4.124;2023-03-24T15:58:51;14.41;105.95
19536;HTU21D;9913;51.168;4.124;2023-03-24T16:01:24;14.58;103.56
19536;HTU21D;9913;51.168;4.124;2023-03-24T16:03:59;14.49;106.40
19536;HTU21D;9913;51.168;4.124;2023-03-24T16:06:31;14.72;101.37
19536;HTU21D;9913;51.168;4.124;2023-03-24T16:09:05;14.95;107.83
19536;HTU21D;9913;51.168;4.124;2023-03-24T16:11:34;14.92;108.55
19536;HTU21D;9913;51.168;4.124;2023-03-24T16:14:17;14.53;105.69
19536;HTU21D;9913;51.168;4.124;2023-03-24T16:16:47;14.32;104.34
19536;HTU21D;9913;51.168;4.124;2023-03-24T16:19:16;14.11;108.09
19536;HTU21D;9913;51.168;4.124;2023-03-24T16:21:44;13.76;103.90
19536;HTU21D;9913;51.168;4.124;2023-03-24T16:24:12;13.65;105.89
19536;HTU21D;9913;51.168;4.124;2023-03-24T16:26:41;13.56;104.04
19536;HTU21D;9913;51.168;4.124;2023-03-24T16:29:15;13.48;102.95
19536;HTU21D;9913;51.168;4.124;2023-03-24T16:31:44;13.59;105.00
19536;HTU21D;9913;51.168;4.124;2023-03-24T16:34:17;13.71;105.69
19536;HTU21D;9913;51.168;4.124;2023-03-24T16:36:46;13.74;106.24
19536;HTU21D;9913;51.168;4.124;2023-03-24T16:39:17;13.68;101.61